MET'MAP v2.0
soon released !

Expected late october,
this new version will be
more efficient, smarter,
and hosted on a brand new
server x3 powerfull...
...and still free !


Not compatible ?
Try the mobile version !

LOG IN : | Subscribe | Disclaimer | Who is Orbifly ? |
ICAO code :

TAF - LFBG Cognac - 27 Feb 2020 13:06 UTC
Data Sources :     NOAA   


- Airport Elevation : 102 ft
- IATA code : CNG
- No reported NOTAMs.


LFBG - Cognac

Latest METAR recorded : 2020/02/27 11:30 LFBG 271130Z AUTO 27024G35KT 9999 BKN014 OVC020 13/11 Q1007
NO TAF


MET'MAP, your aeronautical weather chart ! - Copyright ORBIFLY December 2007

Programming & Development : Alexandra Zaïnal
Co-Developer : Marc-Olivier Méhu
Technical & hardware support : Manuel Goepfert
Concept & Financing : Baudouin d'Aumeries